createdAt,value
2019-04-23T00:00:35.089Z,69.40
2019-04-23T00:03:10.111Z,69.70
2019-04-23T00:05:41.915Z,70.10
2019-04-23T00:08:09.602Z,70.10
2019-04-23T00:10:36.630Z,70.60
2019-04-23T00:13:10.912Z,70.50
2019-04-23T00:16:10.931Z,70.80
2019-04-23T00:18:36.937Z,71.10
2019-04-23T00:21:11.791Z,71.30
2019-04-23T00:23:46.288Z,72.20
2019-04-23T00:26:19.784Z,71.80
2019-04-23T00:31:18.427Z,72.00
2019-04-23T00:33:43.676Z,71.90
2019-04-23T00:36:24.230Z,72.20
2019-04-23T00:38:45.562Z,72.30
2019-04-23T00:41:18.085Z,72.30
2019-04-23T00:43:50.597Z,72.50
2019-04-23T00:46:18.007Z,72.50
2019-04-23T00:48:54.351Z,72.50
2019-04-23T00:51:16.724Z,72.30
2019-04-23T00:53:44.230Z,72.40
2019-04-23T00:58:52.336Z,72.20
2019-04-23T01:01:18.336Z,72.30
2019-04-23T01:03:54.290Z,72.10
2019-04-23T01:06:21.194Z,72.20
2019-04-23T01:08:50.950Z,72.20
2019-04-23T01:11:20.389Z,72.30
2019-04-23T01:13:49.482Z,72.40
2019-04-23T01:16:33.297Z,72.50
2019-04-23T01:19:24.579Z,72.40
2019-04-23T01:21:13.839Z,72.30
2019-04-23T01:24:03.690Z,72.40
2019-04-23T01:26:50.379Z,72.10
2019-04-23T01:29:32.054Z,72.50
2019-04-23T01:31:57.437Z,71.80
2019-04-23T01:34:31.910Z,71.80
2019-04-23T01:36:56.026Z,71.50
2019-04-23T01:39:22.795Z,71.40
2019-04-23T01:42:08.804Z,71.30
2019-04-23T01:44:36.977Z,71.30
2019-04-23T01:47:00.793Z,71.10
2019-04-23T01:49:35.959Z,71.30
2019-04-23T01:52:00.347Z,70.90
2019-04-23T01:54:30.845Z,71.00
2019-04-23T01:57:01.355Z,71.10
2019-04-23T01:59:31.702Z,71.20
2019-04-23T02:02:06.585Z,71.30
2019-04-23T02:04:34.867Z,71.50
2019-04-23T02:07:05.761Z,71.30
2019-04-23T02:09:37.333Z,71.30
2019-04-23T02:12:07.122Z,71.30
2019-04-23T02:14:36.444Z,71.50
2019-04-23T02:17:10.516Z,71.50
2019-04-23T02:19:42.455Z,71.50
2019-04-23T02:22:28.400Z,71.60
2019-04-23T02:24:49.355Z,71.80
2019-04-23T02:27:22.068Z,71.90
2019-04-23T02:30:05.824Z,72.20
2019-04-23T02:37:40.771Z,72.40
2019-04-23T02:42:47.093Z,72.30
2019-04-23T02:44:55.862Z,72.40
2019-04-23T02:52:28.802Z,73.20
2019-04-23T02:54:57.094Z,73.60
2019-04-23T02:57:29.778Z,73.60
2019-04-23T03:05:00.929Z,73.70
2019-04-23T03:07:38.955Z,73.20
2019-04-23T03:10:03.327Z,73.50
2019-04-23T03:12:43.346Z,73.30
2019-04-23T03:15:36.588Z,73.10
2019-04-23T03:23:53.624Z,73.00
2019-04-23T03:38:48.400Z,74.10
2019-04-23T03:41:21.644Z,73.70
2019-04-23T03:46:27.304Z,74.00
2019-04-23T03:48:47.836Z,73.80
2019-04-23T03:51:20.472Z,73.80
2019-04-23T03:58:47.523Z,74.50
2019-04-23T04:11:27.179Z,74.40
2019-04-23T04:19:25.152Z,74.40
2019-04-23T04:21:52.020Z,73.80
2019-04-23T04:24:27.567Z,74.70
2019-04-23T04:27:03.585Z,73.60
2019-04-23T04:29:20.433Z,73.60
2019-04-23T04:39:15.376Z,73.20
2019-04-23T04:42:04.688Z,72.60
2019-04-23T04:49:23.799Z,70.60
2019-04-23T04:52:00.967Z,69.60
2019-04-23T04:54:21.481Z,68.60
2019-04-23T04:56:58.084Z,67.30
2019-04-23T04:59:35.431Z,65.40
2019-04-23T05:02:00.453Z,63.30
2019-04-23T05:04:26.840Z,62.20
2019-04-23T05:07:02.613Z,62.20
2019-04-23T05:09:32.629Z,61.70
2019-04-23T05:14:35.456Z,60.70
2019-04-23T05:22:02.915Z,60.30
2019-04-23T05:26:55.455Z,59.40
2019-04-23T05:29:22.459Z,59.00
2019-04-23T05:31:54.972Z,59.20
2019-04-23T05:34:20.977Z,59.00
2019-04-23T05:36:54.260Z,57.00
2019-04-23T05:39:30.619Z,56.00
2019-04-23T05:41:53.666Z,55.70
2019-04-23T05:44:29.616Z,56.20
2019-04-23T05:49:26.202Z,55.00
2019-04-23T05:51:58.893Z,54.00
2019-04-23T05:54:26.601Z,53.20
2019-04-23T05:56:56.976Z,53.50
2019-04-23T06:04:32.752Z,53.40
2019-04-23T06:09:53.189Z,53.70
2019-04-23T06:12:15.650Z,52.80
2019-04-23T06:14:52.440Z,52.30
2019-04-23T06:17:21.648Z,53.40
2019-04-23T06:20:01.165Z,53.40
2019-04-23T06:22:30.101Z,51.70
2019-04-23T06:24:52.781Z,50.50
2019-04-23T06:29:57.428Z,50.80
2019-04-23T06:32:25.981Z,49.40
2019-04-23T06:34:53.230Z,48.70
2019-04-23T06:37:27.075Z,48.90
2019-04-23T06:39:57.727Z,48.70
2019-04-23T06:42:23.433Z,47.90
2019-04-23T06:44:58.221Z,48.60
2019-04-23T06:47:27.811Z,47.80
2019-04-23T06:49:55.944Z,47.50
2019-04-23T06:52:30.176Z,48.40
2019-04-23T06:57:42.604Z,49.70
2019-04-23T07:00:23.966Z,48.70
2019-04-23T07:03:03.116Z,49.10
2019-04-23T07:05:27.637Z,49.40
2019-04-23T07:08:04.433Z,49.80
2019-04-23T07:10:19.827Z,49.20
2019-04-23T07:12:47.236Z,50.40
2019-04-23T07:15:33.610Z,49.40
2019-04-23T07:17:50.021Z,49.70
2019-04-23T07:20:19.875Z,49.10
2019-04-23T07:23:03.571Z,50.80
2019-04-23T07:25:29.286Z,51.10
2019-04-23T07:27:51.311Z,52.80
2019-04-23T07:30:31.583Z,53.20
2019-04-23T07:32:57.257Z,53.20
2019-04-23T07:35:15.868Z,53.10
2019-04-23T07:38:09.314Z,53.40
2019-04-23T07:40:37.476Z,53.40
2019-04-23T07:43:08.916Z,51.80
2019-04-23T07:45:45.064Z,50.10
2019-04-23T07:50:47.987Z,49.50
2019-04-23T07:53:19.645Z,48.50
2019-04-23T07:58:27.249Z,49.40
2019-04-23T08:05:46.663Z,49.80
2019-04-23T08:08:16.831Z,50.20
2019-04-23T08:11:21.496Z,49.70
2019-04-23T08:13:37.094Z,48.00
2019-04-23T08:15:53.923Z,48.20
2019-04-23T08:18:29.669Z,47.30
2019-04-23T08:20:55.629Z,45.10
2019-04-23T08:23:49.643Z,44.30
2019-04-23T08:26:34.870Z,44.60
2019-04-23T08:29:12.909Z,44.80
2019-04-23T08:31:40.361Z,44.20
2019-04-23T08:34:28.466Z,44.00
2019-04-23T08:36:35.824Z,43.30
2019-04-23T08:39:08.902Z,43.50
2019-04-23T08:44:15.674Z,44.20
2019-04-23T08:46:50.974Z,44.90
2019-04-23T08:49:25.741Z,44.00
2019-04-23T08:51:56.635Z,42.70
2019-04-23T08:54:26.579Z,43.10
2019-04-23T08:56:48.702Z,43.60
2019-04-23T08:59:28.056Z,43.00
2019-04-23T09:01:57.896Z,43.90
2019-04-23T09:04:16.876Z,43.10
2019-04-23T09:06:45.366Z,43.70
2019-04-23T09:09:20.275Z,43.20
2019-04-23T09:11:59.233Z,43.40
2019-04-23T09:14:05.654Z,43.90
2019-04-23T09:16:51.415Z,44.50
2019-04-23T09:19:23.214Z,43.40
2019-04-23T09:21:50.397Z,42.80
2019-04-23T09:24:22.831Z,43.60
2019-04-23T09:26:51.675Z,43.10
2019-04-23T09:29:28.050Z,43.20
2019-04-23T09:34:56.982Z,44.10
2019-04-23T09:37:37.284Z,43.90
2019-04-23T09:40:18.472Z,43.40
2019-04-23T09:43:00.423Z,42.20
2019-04-23T09:48:06.726Z,41.10
2019-04-23T09:50:48.969Z,42.30
2019-04-23T09:53:17.753Z,42.40
2019-04-23T09:55:41.967Z,41.90
2019-04-23T10:00:46.767Z,41.70
2019-04-23T10:03:05.068Z,41.70
2019-04-23T10:05:31.353Z,42.10
2019-04-23T10:08:01.766Z,41.90
2019-04-23T10:10:20.737Z,42.10
2019-04-23T10:12:50.180Z,41.70
2019-04-23T10:15:25.004Z,41.20
2019-04-23T10:17:50.115Z,41.50
2019-04-23T10:20:20.474Z,41.40
2019-04-23T10:22:50.438Z,41.70
2019-04-23T10:25:19.297Z,41.00
2019-04-23T10:27:56.539Z,40.90
2019-04-23T10:30:19.675Z,41.00
2019-04-23T10:32:49.489Z,41.20
2019-04-23T10:35:25.758Z,41.20
2019-04-23T10:37:56.567Z,40.90
2019-04-23T10:40:25.961Z,41.00
2019-04-23T10:42:51.841Z,41.00
2019-04-23T10:45:35.160Z,40.80
2019-04-23T10:51:09.080Z,39.50
2019-04-23T10:56:11.310Z,39.20
2019-04-23T10:58:35.142Z,40.00
2019-04-23T11:01:16.368Z,38.60
2019-04-23T11:03:53.974Z,39.00
2019-04-23T11:08:34.816Z,39.80
2019-04-23T11:16:40.383Z,39.70
2019-04-23T11:24:01.888Z,38.90
2019-04-23T11:26:24.754Z,39.20
2019-04-23T11:31:25.050Z,39.40
2019-04-23T11:33:51.059Z,39.00
2019-04-23T11:38:52.336Z,39.40
2019-04-23T11:41:30.136Z,39.20
2019-04-23T11:43:46.740Z,38.40
2019-04-23T11:51:45.945Z,38.00
2019-04-23T11:53:48.214Z,38.40
2019-04-23T11:56:38.236Z,38.60
2019-04-23T11:58:46.023Z,38.00
2019-04-23T12:04:08.618Z,38.90
2019-04-23T12:06:44.438Z,37.90
2019-04-23T12:09:19.926Z,38.80
2019-04-23T12:11:52.824Z,38.10
2019-04-23T12:14:39.148Z,38.20
2019-04-23T12:19:53.167Z,37.70
2019-04-23T12:22:07.882Z,36.20
2019-04-23T12:24:56.855Z,36.10
2019-04-23T12:27:08.033Z,37.10
2019-04-23T12:38:04.069Z,36.70
2019-04-23T12:40:20.049Z,36.50
2019-04-23T12:48:02.215Z,36.80
2019-04-23T12:50:48.499Z,36.90
2019-04-23T12:55:22.367Z,37.80
2019-04-23T13:03:02.752Z,36.00
2019-04-23T13:05:28.918Z,35.30
2019-04-23T13:08:08.627Z,35.30
2019-04-23T13:10:35.516Z,35.40
2019-04-23T13:15:23.035Z,34.80
2019-04-23T13:20:23.198Z,33.20
2019-04-23T13:25:45.618Z,34.00
2019-04-23T13:28:09.537Z,34.20
2019-04-23T13:41:09.079Z,35.30
2019-04-23T13:43:40.138Z,34.30
2019-04-23T13:48:27.633Z,35.30
2019-04-23T13:51:06.978Z,35.70
2019-04-23T13:53:39.338Z,36.40
2019-04-23T13:56:15.274Z,35.90
2019-04-23T13:58:38.798Z,35.60
2019-04-23T14:03:42.900Z,37.70
2019-04-23T14:08:53.575Z,39.70
2019-04-23T14:14:05.043Z,41.50
2019-04-23T14:16:56.925Z,42.10
2019-04-23T14:19:03.545Z,41.40
2019-04-23T14:21:34.514Z,41.90
2019-04-23T14:29:19.103Z,42.40
2019-04-23T14:31:53.309Z,43.20
2019-04-23T14:34:06.422Z,43.00
2019-04-23T14:36:39.452Z,43.10
2019-04-23T14:39:28.655Z,43.40
2019-04-23T14:41:56.672Z,43.40
2019-04-23T14:44:25.201Z,43.50
2019-04-23T14:49:40.722Z,44.10
2019-04-23T14:59:42.141Z,43.80
2019-04-23T15:02:18.150Z,43.70
2019-04-23T15:04:39.765Z,43.90
2019-04-23T15:07:15.392Z,43.60
2019-04-23T15:09:52.809Z,44.00
2019-04-23T15:12:17.247Z,43.60
2019-04-23T15:14:56.411Z,44.30
2019-04-23T15:17:13.060Z,44.70
2019-04-23T15:22:20.339Z,44.40
2019-04-23T15:25:03.736Z,45.10
2019-04-23T15:28:03.098Z,45.60
2019-04-23T15:29:45.807Z,45.90
2019-04-23T15:32:24.241Z,46.00
2019-04-23T15:37:40.362Z,46.20
2019-04-23T15:40:02.372Z,45.60
2019-04-23T15:42:35.127Z,45.80
2019-04-23T15:47:33.080Z,45.10
2019-04-23T15:50:10.820Z,45.30
2019-04-23T15:52:38.039Z,45.60
2019-04-23T15:57:49.637Z,45.70
2019-04-23T15:59:58.760Z,45.50
2019-04-23T16:02:01.274Z,45.80
2019-04-23T16:04:31.703Z,46.40
2019-04-23T16:07:00.324Z,46.30
2019-04-23T16:10:06.595Z,46.10
2019-04-23T16:12:28.092Z,47.20
2019-04-23T16:15:02.461Z,46.90
2019-04-23T16:17:27.833Z,47.20
2019-04-23T16:20:11.438Z,48.00
2019-04-23T16:22:24.827Z,48.40
2019-04-23T16:27:19.582Z,49.40
2019-04-23T16:30:12.915Z,49.30
2019-04-23T16:32:49.068Z,49.30
2019-04-23T16:35:18.222Z,49.70
2019-04-23T16:38:10.258Z,49.60
2019-04-23T16:40:33.129Z,49.90
2019-04-23T16:43:03.546Z,50.00
2019-04-23T16:45:49.417Z,50.00
2019-04-23T16:48:06.631Z,50.20
2019-04-23T16:50:41.088Z,51.20
2019-04-23T16:53:09.215Z,50.80
2019-04-23T16:55:37.901Z,50.70
2019-04-23T16:58:11.700Z,50.90
2019-04-23T17:00:31.138Z,51.50
2019-04-23T17:03:12.579Z,51.30
2019-04-23T17:05:31.086Z,51.50
2019-04-23T17:08:30.899Z,52.10
2019-04-23T17:10:38.509Z,52.30
2019-04-23T17:13:34.584Z,52.60
2019-04-23T17:16:12.173Z,52.90
2019-04-23T17:20:56.418Z,53.50
2019-04-23T17:31:26.255Z,53.80
2019-04-23T17:33:42.015Z,54.10
2019-04-23T17:38:56.955Z,54.40
2019-04-23T17:41:48.496Z,54.80
2019-04-23T17:44:18.868Z,54.90
2019-04-23T17:49:13.104Z,55.00
2019-04-23T17:51:35.913Z,55.20
2019-04-23T17:54:24.613Z,55.40
2019-04-23T17:56:59.977Z,55.70
2019-04-23T17:59:18.033Z,55.80
2019-04-23T18:01:47.443Z,55.90
2019-04-23T18:04:20.639Z,55.90
2019-04-23T18:09:25.904Z,56.30
2019-04-23T18:11:44.925Z,56.30
2019-04-23T18:14:11.772Z,56.30
2019-04-23T18:21:55.251Z,57.10
2019-04-23T18:32:35.359Z,57.70
2019-04-23T18:35:08.651Z,57.90
2019-04-23T18:37:25.805Z,58.20
2019-04-23T18:39:48.628Z,58.10
2019-04-23T18:42:25.901Z,58.40
2019-04-23T18:44:54.012Z,58.50
2019-04-23T18:47:37.769Z,58.50
2019-04-23T18:54:48.961Z,59.30
2019-04-23T18:57:39.887Z,59.10
2019-04-23T19:02:52.280Z,59.50
2019-04-23T19:05:33.168Z,59.50
2019-04-23T19:08:35.408Z,59.30
2019-04-23T19:10:48.309Z,59.70
2019-04-23T19:13:22.770Z,59.60
2019-04-23T19:15:40.730Z,59.70
2019-04-23T19:18:21.685Z,59.80
2019-04-23T19:21:00.918Z,59.90
2019-04-23T19:25:43.742Z,59.90
2019-04-23T19:28:39.119Z,60.00
2019-04-23T19:31:00.968Z,60.10
2019-04-23T19:33:29.145Z,60.30
2019-04-23T19:36:05.154Z,60.60
2019-04-23T19:38:25.068Z,60.70
2019-04-23T19:43:26.410Z,61.70
2019-04-23T19:46:03.865Z,61.10
2019-04-23T19:48:33.488Z,61.40
2019-04-23T19:51:03.108Z,61.60
2019-04-23T19:53:32.364Z,61.70
2019-04-23T19:58:32.491Z,62.60
2019-04-23T20:01:13.746Z,62.10
2019-04-23T20:06:03.202Z,62.80
2019-04-23T20:09:01.358Z,62.60
2019-04-23T20:10:54.612Z,62.50
2019-04-23T20:13:37.702Z,62.50
2019-04-23T20:18:41.556Z,62.50
2019-04-23T20:23:52.033Z,62.40
2019-04-23T20:29:11.873Z,62.90
2019-04-23T20:33:00.610Z,63.30
2019-04-23T20:34:22.659Z,63.50
2019-04-23T20:36:48.134Z,63.90
2019-04-23T20:39:16.481Z,64.00
2019-04-23T20:44:33.577Z,64.40
2019-04-23T20:49:40.164Z,64.60
2019-04-23T20:54:44.397Z,64.70
2019-04-23T20:57:24.593Z,65.20
2019-04-23T20:59:56.373Z,65.50
2019-04-23T21:02:41.572Z,65.80
2019-04-23T21:05:06.672Z,65.90
2019-04-23T21:07:37.716Z,66.00
2019-04-23T21:10:08.894Z,66.30
2019-04-23T21:12:45.935Z,66.60
2019-04-23T21:15:05.388Z,66.80
2019-04-23T21:17:40.663Z,67.00
2019-04-23T21:24:51.257Z,67.50
2019-04-23T21:27:41.001Z,67.60
2019-04-23T21:30:09.039Z,68.00
2019-04-23T21:32:47.054Z,68.40
2019-04-23T21:35:19.288Z,68.20
2019-04-23T21:37:55.929Z,68.60
2019-04-23T21:43:10.701Z,68.90
2019-04-23T21:46:02.094Z,69.10
2019-04-23T21:48:43.702Z,70.10
2019-04-23T21:51:24.126Z,69.50
2019-04-23T21:53:37.458Z,69.50
2019-04-23T21:58:36.689Z,70.10
2019-04-23T22:01:27.949Z,70.20
2019-04-23T22:09:00.925Z,70.90
2019-04-23T22:11:42.719Z,71.00
2019-04-23T22:16:26.025Z,71.40
2019-04-23T22:19:04.237Z,71.50
2019-04-23T22:21:33.318Z,71.50
2019-04-23T22:24:08.777Z,71.60
2019-04-23T22:26:32.254Z,71.60
2019-04-23T22:29:05.464Z,71.90
2019-04-23T22:31:37.728Z,72.00
2019-04-23T22:34:02.561Z,72.20
2019-04-23T22:36:22.956Z,72.30
2019-04-23T22:38:59.971Z,72.50
2019-04-23T22:41:51.909Z,72.80
2019-04-23T22:49:30.945Z,73.40
2019-04-23T22:52:14.850Z,73.40
2019-04-23T22:54:24.062Z,73.70
2019-04-23T23:02:03.858Z,74.40
2019-04-23T23:04:28.697Z,74.30
2019-04-23T23:07:02.761Z,74.30
2019-04-23T23:09:32.827Z,74.80
2019-04-23T23:12:06.995Z,75.00
2019-04-23T23:14:27.622Z,75.30
2019-04-23T23:16:58.849Z,75.10
2019-04-23T23:24:33.707Z,75.40
2019-04-23T23:26:57.335Z,75.70
2019-04-23T23:29:36.656Z,75.70
2019-04-23T23:32:07.941Z,75.90
2019-04-23T23:34:41.963Z,75.70
2019-04-23T23:37:23.925Z,75.80
2019-04-23T23:42:04.091Z,76.00
2019-04-23T23:47:07.265Z,76.20
2019-04-23T23:49:33.899Z,76.40
2019-04-23T23:54:54.305Z,76.50
2019-04-23T23:57:16.479Z,76.80
